Time;durP1;ratioP1;P1;durP2;ratioP2;P2;SDS_P1;SDS_P2;PMS_P1;PMS_P2;Temp;Humidity;BMP_temperature;BMP_pressure;BME280_temperature;BME280_humidity;BME280_pressure;Samples;Min_cycle;Max_cycle;Signal;HPM_P1;HPM_P2
2022/04/03 00:02:14;;;;;;;;;;;7.30;65.80;;;;;;4997987;28;19945;-58
2022/04/03 00:04:40;;;;;;;;;;;7.20;66.40;;;;;;4997751;28;20298;-60
2022/04/03 00:07:05;;;;;;;;;;;7.20;66.40;;;;;;5004437;28;20381;-58
2022/04/03 00:09:31;;;;;;;;;;;7.10;66.70;;;;;;4999612;28;20259;-60
2022/04/03 00:11:56;;;;;;;;;;;7.10;66.20;;;;;;4997875;28;19925;-58
2022/04/03 00:14:22;;;;;;;;;;;7.10;66.40;;;;;;4997596;28;19914;-58
2022/04/03 00:16:47;;;;;;;;;;;7.10;65.80;;;;;;4997744;28;19914;-58
2022/04/03 00:19:13;;;;;;;;;;;7.10;65.70;;;;;;4997383;28;20027;-58
2022/04/03 00:21:39;;;;;;;;;;;7.20;64.90;;;;;;4997384;28;19914;-58
2022/04/03 00:24:04;;;;;;;;;;;7.10;65.80;;;;;;4997592;28;19965;-58
2022/04/03 00:26:30;;;;;;;;;;;7.10;65.10;;;;;;4997412;28;19917;-58
2022/04/03 00:28:55;;;;;;;;;;;7.00;65.20;;;;;;4997381;28;20333;-58
2022/04/03 00:31:22;;;;;;;;;;;7.20;64.00;;;;;;4997478;28;20008;-60
2022/04/03 00:33:48;;;;;;;;;;;7.10;64.10;;;;;;4997187;28;19964;-59
2022/04/03 00:36:14;;;;;;;;;;;7.10;63.80;;;;;;4997638;28;20363;-59
2022/04/03 00:38:39;;;;;;;;;;;7.10;63.50;;;;;;5003199;28;19941;-59
2022/04/03 00:41:05;;;;;;;;;;;7.10;63.90;;;;;;5004809;28;19918;-58
2022/04/03 00:43:31;;;;;;;;;;;7.10;63.80;;;;;;4997742;28;19942;-58
2022/04/03 00:45:59;;;;;;;;;;;7.10;63.50;;;;;;4997759;28;19952;-58
2022/04/03 00:48:24;;;;;;;;;;;7.10;63.00;;;;;;4998812;28;19913;-62
2022/04/03 00:50:50;;;;;;;;;;;7.00;62.90;;;;;;5014005;28;20274;-58
2022/04/03 00:53:16;;;;;;;;;;;7.10;63.00;;;;;;4996878;28;20407;-60
2022/04/03 00:55:43;;;;;;;;;;;7.00;62.20;;;;;;4997054;28;19909;-58
2022/04/03 00:58:11;;;;;;;;;;;7.10;63.00;;;;;;4996882;28;19992;-58
2022/04/03 01:00:37;;;;;;;;;;;7.00;62.90;;;;;;4996184;28;19918;-59
2022/04/03 01:03:03;;;;;;;;;;;7.10;62.70;;;;;;4996303;28;19980;-58
2022/04/03 01:05:29;;;;;;;;;;;7.10;63.00;;;;;;4996811;28;20329;-58
2022/04/03 01:07:54;;;;;;;;;;;7.10;63.20;;;;;;4996582;28;20296;-58
2022/04/03 01:10:20;;;;;;;;;;;7.10;62.20;;;;;;4995240;28;19959;-58
2022/04/03 01:12:45;;;;;;;;;;;7.10;62.30;;;;;;4996505;28;19936;-58
2022/04/03 01:15:14;;;;;;;;;;;7.10;62.40;;;;;;4996845;28;19917;-58
2022/04/03 01:17:40;;;;;;;;;;;7.20;61.80;;;;;;4996501;28;19956;-61
2022/04/03 01:20:06;;;;;;;;;;;7.10;61.60;;;;;;4996288;28;19918;-58
2022/04/03 01:22:32;;;;;;;;;;;7.00;62.90;;;;;;4996261;28;20381;-59
2022/04/03 01:24:58;;;;;;;;;;;7.00;63.20;;;;;;4996254;28;19910;-58
2022/04/03 01:27:24;;;;;;;;;;;7.00;62.90;;;;;;4996365;28;20389;-59
2022/04/03 01:29:51;;;;;;;;;;;7.10;63.00;;;;;;4996209;28;19964;-58
2022/04/03 01:32:17;;;;;;;;;;;7.10;62.50;;;;;;4996190;28;20351;-58
2022/04/03 01:34:43;;;;;;;;;;;7.20;62.10;;;;;;4996178;28;19996;-58
2022/04/03 01:37:08;;;;;;;;;;;7.10;62.20;;;;;;4996272;28;19972;-58
2022/04/03 01:39:34;;;;;;;;;;;7.10;61.80;;;;;;4995956;28;19918;-60
2022/04/03 01:42:01;;;;;;;;;;;7.00;62.20;;;;;;4996115;28;20251;-58
2022/04/03 01:44:27;;;;;;;;;;;7.00;61.90;;;;;;4995999;28;19996;-58
2022/04/03 01:46:52;;;;;;;;;;;7.00;62.70;;;;;;4996219;28;19956;-59
2022/04/03 01:49:18;;;;;;;;;;;7.00;62.40;;;;;;4996195;28;19993;-58
2022/04/03 01:51:43;;;;;;;;;;;7.10;61.80;;;;;;4996332;28;20301;-58
2022/04/03 01:54:09;;;;;;;;;;;7.10;61.70;;;;;;4995667;28;19914;-59
2022/04/03 01:56:34;;;;;;;;;;;7.20;61.20;;;;;;4996214;28;19965;-58
2022/04/03 01:59:03;;;;;;;;;;;7.20;61.60;;;;;;4995882;28;19910;-58
2022/04/03 02:01:32;;;;;;;;;;;7.20;61.20;;;;;;4995535;28;20309;-58
2022/04/03 02:03:58;;;;;;;;;;;7.10;60.90;;;;;;4995433;28;19910;-58
2022/04/03 02:06:23;;;;;;;;;;;7.00;61.10;;;;;;4995670;28;19910;-58
2022/04/03 02:08:49;;;;;;;;;;;7.10;61.00;;;;;;4995559;28;19910;-58
2022/04/03 02:11:15;;;;;;;;;;;7.20;60.50;;;;;;4995493;28;19945;-58
2022/04/03 02:13:41;;;;;;;;;;;7.00;60.20;;;;;;4995294;28;19933;-59
2022/04/03 02:16:07;;;;;;;;;;;7.00;60.60;;;;;;4996337;28;20277;-58
2022/04/03 02:18:32;;;;;;;;;;;7.00;61.10;;;;;;4995506;28;19989;-58
2022/04/03 02:20:58;;;;;;;;;;;7.00;60.80;;;;;;4995466;28;19918;-58
2022/04/03 02:23:23;;;;;;;;;;;6.90;61.00;;;;;;4995395;28;20365;-58
2022/04/03 02:25:50;;;;;;;;;;;7.00;60.80;;;;;;4994114;28;19913;-60
2022/04/03 02:28:19;;;;;;;;;;;6.90;60.80;;;;;;4994382;28;19914;-58
2022/04/03 02:30:45;;;;;;;;;;;6.90;61.00;;;;;;4995518;28;19909;-58
2022/04/03 02:33:10;;;;;;;;;;;6.80;61.10;;;;;;4995362;28;19924;-59
2022/04/03 02:35:36;;;;;;;;;;;6.80;61.40;;;;;;4995133;28;19996;-58
2022/04/03 02:38:02;;;;;;;;;;;6.80;60.90;;;;;;4995473;28;19910;-59
2022/04/03 02:40:28;;;;;;;;;;;6.80;61.50;;;;;;4995076;28;19929;-58
2022/04/03 02:42:53;;;;;;;;;;;6.70;61.80;;;;;;5001744;28;19910;-59
2022/04/03 02:45:19;;;;;;;;;;;6.80;61.40;;;;;;5005598;28;19913;-59
2022/04/03 02:47:49;;;;;;;;;;;6.80;61.40;;;;;;4995092;28;20358;-58
2022/04/03 02:50:16;;;;;;;;;;;6.70;61.30;;;;;;4995342;28;19957;-58
2022/04/03 02:52:49;;;;;;;;;;;6.60;61.60;;;;;;4994886;28;19956;-58
2022/04/03 02:55:15;;;;;;;;;;;6.60;61.90;;;;;;4997138;28;19910;-60
2022/04/03 02:57:41;;;;;;;;;;;6.60;62.20;;;;;;5003980;28;20005;-58
2022/04/03 03:00:07;;;;;;;;;;;6.60;61.90;;;;;;4996769;28;19933;-58
2022/04/03 03:02:33;;;;;;;;;;;6.60;62.20;;;;;;4994936;28;19960;-58
2022/04/03 03:04:58;;;;;;;;;;;6.70;61.70;;;;;;4994979;28;19914;-58
2022/04/03 03:07:24;;;;;;;;;;;6.60;62.30;;;;;;4994770;28;19976;-59
2022/04/03 03:09:50;;;;;;;;;;;6.60;62.00;;;;;;4995063;28;19917;-56
2022/04/03 03:12:15;;;;;;;;;;;6.60;63.40;;;;;;4994753;28;19910;-58
2022/04/03 03:14:41;;;;;;;;;;;6.70;61.60;;;;;;4994866;28;19949;-58
2022/04/03 03:17:06;;;;;;;;;;;6.70;61.60;;;;;;4994944;28;19910;-61
2022/04/03 03:19:32;;;;;;;;;;;6.70;60.90;;;;;;4994867;28;19921;-58
2022/04/03 03:21:58;;;;;;;;;;;6.60;61.00;;;;;;4994862;28;20004;-58
2022/04/03 03:24:23;;;;;;;;;;;6.60;61.70;;;;;;4995272;28;19957;-60
2022/04/03 03:26:49;;;;;;;;;;;6.60;60.40;;;;;;4999054;28;19914;-58
2022/04/03 03:29:15;;;;;;;;;;;6.50;60.40;;;;;;4998807;28;20108;-58
2022/04/03 03:31:40;;;;;;;;;;;6.60;60.90;;;;;;4999240;28;19918;-58
2022/04/03 03:34:06;;;;;;;;;;;6.60;61.00;;;;;;4998362;28;19992;-58
2022/04/03 03:36:31;;;;;;;;;;;6.60;59.80;;;;;;4998610;28;20277;-58
2022/04/03 03:38:57;;;;;;;;;;;6.60;60.50;;;;;;4997429;28;19910;-58
2022/04/03 03:41:22;;;;;;;;;;;6.60;59.70;;;;;;4998584;28;20358;-58
2022/04/03 03:43:48;;;;;;;;;;;6.60;60.20;;;;;;4998357;28;20393;-58
2022/04/03 03:46:14;;;;;;;;;;;6.60;59.10;;;;;;4998290;28;19910;-58
2022/04/03 03:48:39;;;;;;;;;;;6.50;59.60;;;;;;4998322;28;19917;-58
2022/04/03 03:51:05;;;;;;;;;;;6.50;59.80;;;;;;4998383;28;20378;-58
2022/04/03 03:53:31;;;;;;;;;;;6.40;60.20;;;;;;4998529;28;19932;-58
2022/04/03 03:55:57;;;;;;;;;;;6.50;60.00;;;;;;4998572;28;19910;-58
2022/04/03 03:58:23;;;;;;;;;;;6.40;60.50;;;;;;4998266;28;19910;-59
2022/04/03 04:00:49;;;;;;;;;;;6.40;60.30;;;;;;4998099;28;20016;-58
2022/04/03 04:03:14;;;;;;;;;;;6.40;60.10;;;;;;4998146;28;19916;-58
2022/04/03 04:05:41;;;;;;;;;;;6.40;60.30;;;;;;4998262;28;19910;-58
2022/04/03 04:08:07;;;;;;;;;;;6.50;59.80;;;;;;4998258;28;20301;-58
2022/04/03 04:10:33;;;;;;;;;;;6.60;59.60;;;;;;4998288;28;20000;-60
2022/04/03 04:12:59;;;;;;;;;;;6.60;59.10;;;;;;5000821;28;20398;-59
2022/04/03 04:15:25;;;;;;;;;;;6.70;59.20;;;;;;5001545;28;19910;-58
2022/04/03 04:17:53;;;;;;;;;;;6.70;58.80;;;;;;4999944;28;20362;-58
2022/04/03 04:20:19;;;;;;;;;;;6.70;58.80;;;;;;5000398;28;19918;-57
2022/04/03 04:22:45;;;;;;;;;;;6.70;58.90;;;;;;5000276;28;19917;-60
2022/04/03 04:25:13;;;;;;;;;;;6.70;58.70;;;;;;4998000;28;19910;-58
2022/04/03 04:27:39;;;;;;;;;;;6.60;57.90;;;;;;4997468;28;19914;-58
2022/04/03 04:30:05;;;;;;;;;;;6.70;58.00;;;;;;4997700;28;19909;-58
2022/04/03 04:32:32;;;;;;;;;;;6.80;58.20;;;;;;4997698;28;19910;-58
2022/04/03 04:34:57;;;;;;;;;;;6.80;57.90;;;;;;4997071;28;19957;-58
2022/04/03 04:37:23;;;;;;;;;;;6.80;57.30;;;;;;5003805;28;19926;-59
2022/04/03 04:39:48;;;;;;;;;;;6.80;57.10;;;;;;5008723;28;19922;-58
2022/04/03 04:42:14;;;;;;;;;;;6.80;57.40;;;;;;4997667;28;19910;-62
2022/04/03 04:44:40;;;;;;;;;;;6.80;56.60;;;;;;4997343;28;19964;-58
2022/04/03 04:47:06;;;;;;;;;;;6.80;56.50;;;;;;4996258;28;20346;-59
2022/04/03 04:49:31;;;;;;;;;;;6.90;56.40;;;;;;4996968;28;20008;-58
2022/04/03 04:51:57;;;;;;;;;;;6.80;55.60;;;;;;4997557;28;20005;-58
2022/04/03 04:54:25;;;;;;;;;;;6.90;56.30;;;;;;4997077;28;20370;-58
2022/04/03 04:56:51;;;;;;;;;;;7.00;55.90;;;;;;4997041;28;19910;-58
2022/04/03 04:59:17;;;;;;;;;;;6.90;56.50;;;;;;4996799;28;19925;-58
2022/04/03 05:01:43;;;;;;;;;;;6.90;56.70;;;;;;4997278;28;19924;-59
2022/04/03 05:04:08;;;;;;;;;;;6.90;56.40;;;;;;4996814;28;19910;-59
2022/04/03 05:06:34;;;;;;;;;;;6.80;56.30;;;;;;4997114;28;20001;-56
2022/04/03 05:09:00;;;;;;;;;;;6.90;55.70;;;;;;4996764;28;19910;-59
2022/04/03 05:11:26;;;;;;;;;;;6.70;55.80;;;;;;4997415;28;20393;-58
2022/04/03 05:13:52;;;;;;;;;;;6.70;56.70;;;;;;4997756;28;19914;-58
2022/04/03 05:16:17;;;;;;;;;;;6.70;55.50;;;;;;4996800;28;19956;-58
2022/04/03 05:18:43;;;;;;;;;;;6.80;55.70;;;;;;4996740;28;20269;-58
2022/04/03 05:21:10;;;;;;;;;;;6.90;55.80;;;;;;4996464;28;20296;-59
2022/04/03 05:23:36;;;;;;;;;;;6.90;56.10;;;;;;4996716;28;19964;-58
2022/04/03 05:26:02;;;;;;;;;;;6.80;56.00;;;;;;4996633;28;19910;-59
2022/04/03 05:28:27;;;;;;;;;;;6.90;55.90;;;;;;4996382;28;20366;-58
2022/04/03 05:30:53;;;;;;;;;;;7.10;55.30;;;;;;4996344;28;20377;-60
2022/04/03 05:33:18;;;;;;;;;;;7.20;54.80;;;;;;4996127;28;20335;-58
2022/04/03 05:35:44;;;;;;;;;;;7.20;54.80;;;;;;4996313;28;19910;-59
2022/04/03 05:38:09;;;;;;;;;;;7.20;54.50;;;;;;4996164;28;19914;-60
2022/04/03 05:40:35;;;;;;;;;;;7.20;54.60;;;;;;4995861;28;19924;-64
2022/04/03 05:43:01;;;;;;;;;;;7.20;54.70;;;;;;4996219;28;20008;-67
2022/04/03 05:45:27;;;;;;;;;;;7.20;54.20;;;;;;4997136;28;19910;-58
2022/04/03 05:47:53;;;;;;;;;;;7.30;54.30;;;;;;5003435;28;19916;-59
2022/04/03 05:50:19;;;;;;;;;;;7.30;54.20;;;;;;4996707;28;19910;-59
2022/04/03 05:52:48;;;;;;;;;;;7.20;53.80;;;;;;4995654;28;19909;-59
2022/04/03 05:55:16;;;;;;;;;;;7.30;53.30;;;;;;4995923;28;19956;-58
2022/04/03 05:57:42;;;;;;;;;;;7.40;52.90;;;;;;4995728;28;20286;-58
2022/04/03 06:00:15;;;;;;;;;;;7.40;52.50;;;;;;4995817;28;19969;-59
2022/04/03 06:02:51;;;;;;;;;;;7.50;52.60;;;;;;4999160;28;19913;-59
2022/04/03 06:05:17;;;;;;;;;;;7.60;52.20;;;;;;4995819;28;20318;-58
2022/04/03 06:07:43;;;;;;;;;;;7.60;52.40;;;;;;4995435;28;19910;-58
2022/04/03 06:10:10;;;;;;;;;;;7.60;52.00;;;;;;4995339;28;19983;-59
2022/04/03 06:12:35;;;;;;;;;;;7.60;52.20;;;;;;4995415;28;19914;-58
2022/04/03 06:15:01;;;;;;;;;;;7.70;51.90;;;;;;4995387;28;20000;-60
2022/04/03 06:17:27;;;;;;;;;;;7.80;51.30;;;;;;4995287;28;20274;-64
2022/04/03 06:19:52;;;;;;;;;;;8.10;51.40;;;;;;4995204;28;20279;-61
2022/04/03 06:22:18;;;;;;;;;;;8.30;50.20;;;;;;4995292;28;19937;-60
2022/04/03 06:24:43;;;;;;;;;;;8.30;49.50;;;;;;4995020;28;19910;-56
2022/04/03 06:27:09;;;;;;;;;;;8.70;62.40;;;;;;4995300;28;19917;-59
2022/04/03 06:29:34;;;;;;;;;;;9.30;62.00;;;;;;4995004;28;19910;-59
2022/04/03 06:32:00;;;;;;;;;;;9.70;58.20;;;;;;4995595;28;19910;-61
2022/04/03 06:34:25;;;;;;;;;;;10.10;55.30;;;;;;5007015;28;19945;-61
2022/04/03 06:36:52;;;;;;;;;;;10.80;56.20;;;;;;4995009;28;19910;-60
2022/04/03 06:39:18;;;;;;;;;;;11.20;51.30;;;;;;4994859;28;19910;-59
2022/04/03 06:41:43;;;;;;;;;;;11.60;53.90;;;;;;4994725;28;19910;-57
2022/04/03 06:44:09;;;;;;;;;;;11.30;46.20;;;;;;4994594;28;19914;-59
2022/04/03 06:46:34;;;;;;;;;;;11.50;48.00;;;;;;4994607;28;19916;-59
2022/04/03 06:49:00;;;;;;;;;;;11.70;46.60;;;;;;4994962;28;19976;-56
2022/04/03 06:51:26;;;;;;;;;;;11.40;42.50;;;;;;4993636;28;19910;-56
2022/04/03 06:53:52;;;;;;;;;;;10.70;42.10;;;;;;4994991;28;19945;-62
2022/04/03 06:56:17;;;;;;;;;;;9.80;43.10;;;;;;4994480;28;19909;-61
2022/04/03 06:58:43;;;;;;;;;;;9.80;44.90;;;;;;4993672;28;20386;-58
2022/04/03 07:01:09;;;;;;;;;;;9.90;44.40;;;;;;4993998;28;19972;-62
2022/04/03 07:03:35;;;;;;;;;;;9.40;44.60;;;;;;4994251;28;19917;-62
2022/04/03 07:06:01;;;;;;;;;;;9.20;44.80;;;;;;4993217;28;19918;-62
2022/04/03 07:08:28;;;;;;;;;;;9.30;44.80;;;;;;4994253;28;20366;-57
2022/04/03 07:10:54;;;;;;;;;;;9.50;44.40;;;;;;4994390;28;19917;-58
2022/04/03 07:13:20;;;;;;;;;;;9.90;44.80;;;;;;4994175;28;19960;-58
2022/04/03 07:15:45;;;;;;;;;;;10.10;44.90;;;;;;4993903;28;19917;-58
2022/04/03 07:18:11;;;;;;;;;;;10.10;44.50;;;;;;4993192;28;20334;-55
2022/04/03 07:20:36;;;;;;;;;;;10.50;43.60;;;;;;4993736;28;20024;-55
2022/04/03 07:23:02;;;;;;;;;;;10.70;43.00;;;;;;4993765;28;19917;-57
2022/04/03 07:25:27;;;;;;;;;;;10.60;43.20;;;;;;4993735;28;20004;-55
2022/04/03 07:27:53;;;;;;;;;;;10.90;42.80;;;;;;4993586;28;20255;-59
2022/04/03 07:30:19;;;;;;;;;;;10.80;41.80;;;;;;4993641;28;19909;-57
2022/04/03 07:32:44;;;;;;;;;;;10.60;43.40;;;;;;4994435;28;19917;-57
2022/04/03 07:35:11;;;;;;;;;;;10.70;44.10;;;;;;4993912;28;19929;-57
2022/04/03 07:37:37;;;;;;;;;;;10.50;43.00;;;;;;4994191;28;19925;-57
2022/04/03 07:40:04;;;;;;;;;;;10.60;43.30;;;;;;4993955;28;20362;-58
2022/04/03 07:42:30;;;;;;;;;;;10.70;43.20;;;;;;4992828;28;19914;-59
2022/04/03 07:44:55;;;;;;;;;;;10.70;42.70;;;;;;4994402;28;19910;-61
2022/04/03 07:47:21;;;;;;;;;;;10.70;41.90;;;;;;4994092;28;19910;-57
2022/04/03 07:49:46;;;;;;;;;;;10.70;42.30;;;;;;4994107;28;20464;-56
2022/04/03 07:52:12;;;;;;;;;;;10.80;41.50;;;;;;4994151;28;19910;-56
2022/04/03 07:54:38;;;;;;;;;;;10.70;42.50;;;;;;4993122;28;19918;-57
2022/04/03 07:57:06;;;;;;;;;;;10.80;42.10;;;;;;4993438;28;19910;-60
2022/04/03 07:59:32;;;;;;;;;;;11.00;42.30;;;;;;4993554;28;20297;-57
2022/04/03 08:01:58;;;;;;;;;;;10.90;41.60;;;;;;4993518;28;20001;-59
2022/04/03 08:04:23;;;;;;;;;;;10.90;41.20;;;;;;4993350;28;19937;-57
2022/04/03 08:06:49;;;;;;;;;;;10.60;41.80;;;;;;4994021;28;20420;-59
2022/04/03 08:09:14;;;;;;;;;;;10.60;41.60;;;;;;4995194;28;19917;-57
2022/04/03 08:11:42;;;;;;;;;;;10.90;42.50;;;;;;4998833;28;19916;-57
2022/04/03 08:14:08;;;;;;;;;;;11.00;42.30;;;;;;4997416;28;19972;-57
2022/04/03 08:16:34;;;;;;;;;;;11.10;41.10;;;;;;4997484;28;19910;-59
2022/04/03 08:19:02;;;;;;;;;;;10.80;41.10;;;;;;4997659;28;19920;-58
2022/04/03 08:21:28;;;;;;;;;;;10.80;40.60;;;;;;5000006;28;19917;-58
2022/04/03 08:23:53;;;;;;;;;;;10.80;42.40;;;;;;4997436;28;19933;-60
2022/04/03 08:26:25;;;;;;;;;;;10.90;43.30;;;;;;4996599;28;20336;-56
2022/04/03 08:28:51;;;;;;;;;;;11.10;42.40;;;;;;4996421;28;19928;-59
2022/04/03 08:31:16;;;;;;;;;;;11.20;42.20;;;;;;5000229;28;19913;-58
2022/04/03 08:33:42;;;;;;;;;;;11.20;41.40;;;;;;5005088;28;19925;-58
2022/04/03 08:36:07;;;;;;;;;;;11.00;40.00;;;;;;4999049;28;19910;-56
2022/04/03 08:38:33;;;;;;;;;;;11.00;40.90;;;;;;4996791;28;20286;-58
2022/04/03 08:41:01;;;;;;;;;;;11.50;41.30;;;;;;4996195;28;19922;-60
2022/04/03 08:43:27;;;;;;;;;;;11.50;41.00;;;;;;4996250;28;19910;-62
2022/04/03 08:45:54;;;;;;;;;;;11.70;40.60;;;;;;4996577;28;19910;-56
2022/04/03 08:48:21;;;;;;;;;;;11.60;40.40;;;;;;4996562;28;19961;-58
2022/04/03 08:50:48;;;;;;;;;;;11.50;40.40;;;;;;4993806;28;19932;-58
2022/04/03 08:53:14;;;;;;;;;;;11.40;41.00;;;;;;4996903;28;19910;-57
2022/04/03 08:55:39;;;;;;;;;;;11.50;40.90;;;;;;4996667;28;20032;-57
2022/04/03 08:58:05;;;;;;;;;;;11.70;41.20;;;;;;4996318;28;20432;-59
2022/04/03 09:00:32;;;;;;;;;;;11.80;40.60;;;;;;4997872;28;20435;-60
2022/04/03 09:02:58;;;;;;;;;;;11.80;39.60;;;;;;4997873;28;20005;-59
2022/04/03 09:05:33;;;;;;;;;;;11.70;39.80;;;;;;4997213;28;19913;-57
2022/04/03 09:08:02;;;;;;;;;;;11.70;39.90;;;;;;4998152;28;19954;-56
2022/04/03 09:10:29;;;;;;;;;;;12.00;39.40;;;;;;4998394;28;19952;-58
2022/04/03 09:12:54;;;;;;;;;;;12.00;40.20;;;;;;4995678;28;19910;-57
2022/04/03 09:15:21;;;;;;;;;;;11.70;39.50;;;;;;4974662;28;19937;-63
2022/04/03 09:17:53;;;;;;;;;;;11.00;39.30;;;;;;4975458;28;19914;-58
2022/04/03 09:20:20;;;;;;;;;;;11.00;42.00;;;;;;4975181;28;20366;-58
2022/04/03 09:22:48;;;;;;;;;;;11.20;41.50;;;;;;4974643;28;19914;-61
2022/04/03 09:25:16;;;;;;;;;;;11.30;41.00;;;;;;4974294;28;19910;-65
2022/04/03 09:27:46;;;;;;;;;;;11.40;41.70;;;;;;4973460;28;20370;-61
2022/04/03 09:30:12;;;;;;;;;;;11.70;41.60;;;;;;4975016;28;19910;-61
2022/04/03 09:32:47;;;;;;;;;;;11.80;39.10;;;;;;4975136;28;19956;-60
2022/04/03 09:35:13;;;;;;;;;;;12.00;40.20;;;;;;4974636;28;20013;-61
2022/04/03 09:37:39;;;;;;;;;;;12.00;38.60;;;;;;4975388;28;19921;-60
2022/04/03 09:40:06;;;;;;;;;;;12.00;39.20;;;;;;4974783;28;19918;-59
2022/04/03 09:42:31;;;;;;;;;;;12.20;39.00;;;;;;4974975;28;19983;-59
2022/04/03 09:44:57;;;;;;;;;;;12.10;38.80;;;;;;4974667;28;19910;-59
2022/04/03 09:47:29;;;;;;;;;;;12.20;38.80;;;;;;4975860;28;20342;-59
2022/04/03 09:49:56;;;;;;;;;;;12.20;38.00;;;;;;4994251;28;19988;-65
2022/04/03 09:52:53;;;;;;;;;;;11.70;36.80;;;;;;4993114;28;19906;-62
2022/04/03 09:55:21;;;;;;;;;;;11.60;38.20;;;;;;5001283;28;19949;-60
2022/04/03 09:57:47;;;;;;;;;;;11.50;37.10;;;;;;4994186;28;20017;-58
2022/04/03 10:00:26;;;;;;;;;;;11.50;38.70;;;;;;4993889;28;19987;-60
2022/04/03 10:02:56;;;;;;;;;;;11.40;39.00;;;;;;4994045;28;19954;-57
2022/04/03 10:05:22;;;;;;;;;;;11.40;37.10;;;;;;4993862;28;20004;-57
2022/04/03 10:07:48;;;;;;;;;;;11.40;37.00;;;;;;4993167;28;20000;-69
2022/04/03 10:10:14;;;;;;;;;;;11.50;37.90;;;;;;4992886;28;19910;-57
2022/04/03 10:12:39;;;;;;;;;;;11.40;37.80;;;;;;4994123;28;19929;-60
2022/04/03 10:15:06;;;;;;;;;;;11.20;36.10;;;;;;4993832;28;19917;-58
2022/04/03 10:17:31;;;;;;;;;;;11.30;38.10;;;;;;4994407;28;20285;-61
2022/04/03 10:19:57;;;;;;;;;;;11.40;37.90;;;;;;4993527;28;19918;-60
2022/04/03 10:22:27;;;;;;;;;;;11.60;38.60;;;;;;4994182;28;19910;-57
2022/04/03 10:24:54;;;;;;;;;;;11.70;38.00;;;;;;4993802;28;20124;-58
2022/04/03 10:27:23;;;;;;;;;;;11.50;36.40;;;;;;4997903;28;19914;-59
2022/04/03 10:29:49;;;;;;;;;;;11.50;38.00;;;;;;4997822;28;20244;-59
2022/04/03 10:32:35;;;;;;;;;;;11.60;38.50;;;;;;4988843;28;19960;-62
2022/04/03 10:35:05;;;;;;;;;;;11.60;36.80;;;;;;4974553;28;19925;-61
2022/04/03 10:37:32;;;;;;;;;;;11.80;36.40;;;;;;4974976;28;19922;-59
2022/04/03 10:40:06;;;;;;;;;;;11.60;35.90;;;;;;4974584;28;19988;-58
2022/04/03 10:42:32;;;;;;;;;;;11.80;38.40;;;;;;4974934;28;20709;-60
2022/04/03 10:45:27;;;;;;;;;;;11.90;37.60;;;;;;4974968;28;19938;-61
2022/04/03 10:48:12;;;;;;;;;;;12.20;36.90;;;;;;4974273;28;19968;-58
2022/04/03 10:50:54;;;;;;;;;;;12.40;35.10;;;;;;4974883;28;19912;-60
2022/04/03 10:53:24;;;;;;;;;;;12.30;35.70;;;;;;4974933;28;20009;-58
2022/04/03 10:55:57;;;;;;;;;;;12.40;34.30;;;;;;4974854;28;19916;-59
2022/04/03 10:58:22;;;;;;;;;;;12.30;35.70;;;;;;4974598;28;19910;-61
2022/04/03 11:00:49;;;;;;;;;;;12.10;35.30;;;;;;4974720;28;20271;-58
2022/04/03 11:03:14;;;;;;;;;;;12.20;34.80;;;;;;4974652;28;20290;-62
2022/04/03 11:05:41;;;;;;;;;;;12.20;35.80;;;;;;4974603;28;19917;-64
2022/04/03 11:08:06;;;;;;;;;;;12.10;36.50;;;;;;4974589;28;19925;-65
2022/04/03 11:10:48;;;;;;;;;;;11.90;38.30;;;;;;4974665;28;19910;-64
2022/04/03 11:13:17;;;;;;;;;;;11.90;37.60;;;;;;4974809;28;20004;-63
2022/04/03 11:15:45;;;;;;;;;;;12.20;35.70;;;;;;4974686;28;19926;-60
2022/04/03 11:18:29;;;;;;;;;;;12.40;35.90;;;;;;4974567;28;19961;-62
2022/04/03 11:21:05;;;;;;;;;;;12.60;36.50;;;;;;4974592;28;19954;-60
2022/04/03 11:23:34;;;;;;;;;;;12.90;35.60;;;;;;4976929;28;19963;-59
2022/04/03 11:25:59;;;;;;;;;;;12.90;35.50;;;;;;4976939;28;19937;-58
2022/04/03 11:28:25;;;;;;;;;;;13.00;36.50;;;;;;4974538;28;20000;-62
2022/04/03 11:30:51;;;;;;;;;;;12.90;37.20;;;;;;4974505;28;19917;-60
2022/04/03 11:33:17;;;;;;;;;;;12.60;35.90;;;;;;4974112;28;19925;-60
2022/04/03 11:35:43;;;;;;;;;;;12.10;37.30;;;;;;4974293;28;19910;-62
2022/04/03 11:38:09;;;;;;;;;;;12.20;37.50;;;;;;4974280;28;20236;-66
2022/04/03 11:40:35;;;;;;;;;;;12.40;38.20;;;;;;4974259;28;19918;-66
2022/04/03 11:43:14;;;;;;;;;;;12.50;38.20;;;;;;4974296;28;19918;-65
2022/04/03 11:45:40;;;;;;;;;;;12.60;37.30;;;;;;4975608;28;19953;-60
2022/04/03 11:48:16;;;;;;;;;;;12.60;37.00;;;;;;4978282;28;19913;-64
2022/04/03 11:50:42;;;;;;;;;;;12.40;39.20;;;;;;4978173;28;20336;-61
2022/04/03 11:53:11;;;;;;;;;;;12.50;38.70;;;;;;4978321;28;20008;-69
2022/04/03 11:55:37;;;;;;;;;;;12.70;38.70;;;;;;4978189;28;19910;-70
2022/04/03 11:58:04;;;;;;;;;;;12.30;36.90;;;;;;4977952;28;20290;-57
2022/04/03 12:00:33;;;;;;;;;;;12.50;39.20;;;;;;4991981;28;21695;-66
2022/04/03 12:02:59;;;;;;;;;;;12.50;37.70;;;;;;4994510;28;19920;-76
2022/04/03 12:05:24;;;;;;;;;;;12.50;36.90;;;;;;4996569;28;19914;-63
2022/04/03 12:07:50;;;;;;;;;;;12.60;37.00;;;;;;4994002;28;19964;-60
2022/04/03 12:10:27;;;;;;;;;;;13.10;38.30;;;;;;4994147;28;19910;-60
2022/04/03 12:12:57;;;;;;;;;;;13.30;38.00;;;;;;4997193;28;20420;-59
2022/04/03 12:15:24;;;;;;;;;;;13.50;37.80;;;;;;4997145;28;20369;-61
2022/04/03 12:17:57;;;;;;;;;;;13.50;37.50;;;;;;4996821;28;19937;-61
2022/04/03 12:20:23;;;;;;;;;;;13.50;36.80;;;;;;4996819;28;19918;-63
2022/04/03 12:22:49;;;;;;;;;;;13.50;36.40;;;;;;5003075;28;20009;-60
2022/04/03 12:25:15;;;;;;;;;;;13.40;36.50;;;;;;5000102;28;19910;-61
2022/04/03 12:27:40;;;;;;;;;;;12.60;36.30;;;;;;4996599;28;19909;-63
2022/04/03 12:30:08;;;;;;;;;;;11.90;36.60;;;;;;4996642;28;19910;-58
2022/04/03 12:32:36;;;;;;;;;;;12.10;38.80;;;;;;4996490;28;19914;-63
2022/04/03 12:35:06;;;;;;;;;;;12.50;38.50;;;;;;4995906;28;20317;-67
2022/04/03 12:37:33;;;;;;;;;;;12.70;38.50;;;;;;4996044;28;19996;-61
2022/04/03 12:40:02;;;;;;;;;;;12.90;38.20;;;;;;4995864;28;19918;-60
2022/04/03 12:42:35;;;;;;;;;;;13.20;38.00;;;;;;4995821;28;19949;-62
2022/04/03 12:45:08;;;;;;;;;;;13.40;37.00;;;;;;4995926;28;19977;-61
2022/04/03 12:47:58;;;;;;;;;;;13.00;35.30;;;;;;4993681;28;19928;-61
2022/04/03 12:50:24;;;;;;;;;;;13.10;35.30;;;;;;4996494;28;19992;-61
2022/04/03 12:52:53;;;;;;;;;;;13.40;36.80;;;;;;4996316;28;20379;-61
2022/04/03 13:00:48;;;;;;;;;;;13.60;34.30;;;;;;4996692;28;19997;-61
2022/04/03 13:03:29;;;;;;;;;;;13.80;35.30;;;;;;4996153;28;19917;-60
2022/04/03 13:05:55;;;;;;;;;;;13.70;34.00;;;;;;4996114;28;19910;-61
2022/04/03 13:08:20;;;;;;;;;;;13.60;35.00;;;;;;4996124;28;19914;-60
2022/04/03 13:10:53;;;;;;;;;;;13.40;32.50;;;;;;4995979;28;19933;-60
2022/04/03 13:13:19;;;;;;;;;;;13.00;34.80;;;;;;4994569;28;19921;-64
2022/04/03 13:15:45;;;;;;;;;;;13.00;35.00;;;;;;4994486;28;20314;-60
2022/04/03 13:18:10;;;;;;;;;;;12.90;34.50;;;;;;4995308;28;19949;-74
2022/04/03 13:20:36;;;;;;;;;;;13.00;34.10;;;;;;4995496;28;19924;-78
2022/04/03 13:23:01;;;;;;;;;;;13.20;33.40;;;;;;4995386;28;19914;-60
2022/04/03 13:25:27;;;;;;;;;;;13.20;32.60;;;;;;4996134;28;19980;-62
2022/04/03 13:27:54;;;;;;;;;;;13.20;33.10;;;;;;4995720;28;19917;-62
2022/04/03 13:30:19;;;;;;;;;;;13.20;32.00;;;;;;4995596;28;20053;-60
2022/04/03 13:32:45;;;;;;;;;;;12.90;33.80;;;;;;4995687;28;19953;-59
2022/04/03 13:35:11;;;;;;;;;;;12.50;31.60;;;;;;4995663;28;19922;-62
2022/04/03 13:37:36;;;;;;;;;;;12.60;32.00;;;;;;4995917;28;19922;-60
2022/04/03 13:40:02;;;;;;;;;;;13.00;31.70;;;;;;4995529;28;19988;-59
2022/04/03 13:42:28;;;;;;;;;;;13.10;31.80;;;;;;4995691;28;19910;-65
2022/04/03 13:44:54;;;;;;;;;;;13.10;31.50;;;;;;4995656;28;19932;-66
2022/04/03 13:47:21;;;;;;;;;;;13.10;31.60;;;;;;4995832;28;20413;-73
2022/04/03 13:49:46;;;;;;;;;;;13.20;30.60;;;;;;4996435;28;20033;-73
2022/04/03 13:52:13;;;;;;;;;;;13.10;31.70;;;;;;4996680;28;19910;-69
2022/04/03 13:54:38;;;;;;;;;;;12.80;32.40;;;;;;5003375;28;19910;-68
2022/04/03 13:57:04;;;;;;;;;;;12.60;33.30;;;;;;5000689;28;19956;-69
2022/04/03 13:59:30;;;;;;;;;;;12.40;34.70;;;;;;5000113;28;20286;-77
2022/04/03 14:01:57;;;;;;;;;;;12.20;33.60;;;;;;4998808;28;19917;-68
2022/04/03 14:04:22;;;;;;;;;;;12.20;34.80;;;;;;4999230;28;19910;-59
2022/04/03 14:06:48;;;;;;;;;;;12.20;33.50;;;;;;4996216;28;20378;-62
2022/04/03 14:09:14;;;;;;;;;;;12.40;33.10;;;;;;4996691;28;20318;-60
2022/04/03 14:11:40;;;;;;;;;;;12.20;35.20;;;;;;4995682;28;20329;-61
2022/04/03 14:14:05;;;;;;;;;;;12.30;33.90;;;;;;4994961;28;19956;-62
2022/04/03 14:16:32;;;;;;;;;;;12.50;33.50;;;;;;4999255;28;19910;-61
2022/04/03 14:18:58;;;;;;;;;;;12.20;34.20;;;;;;5003117;28;20001;-66
2022/04/03 14:21:27;;;;;;;;;;;12.40;34.30;;;;;;4994736;28;20013;-66
2022/04/03 14:23:53;;;;;;;;;;;12.60;36.20;;;;;;4994562;28;19949;-74
2022/04/03 14:26:18;;;;;;;;;;;12.60;33.80;;;;;;4994686;28;19960;-72
2022/04/03 14:28:44;;;;;;;;;;;12.70;33.30;;;;;;4994707;28;19909;-62